createdAt,value
2023-01-29T00:13:43.930Z,11.13
2023-01-29T00:15:55.810Z,17.73
2023-01-29T00:17:57.639Z,16.25
2023-01-29T00:22:01.417Z,21.33
2023-01-29T00:26:05.771Z,19.58
2023-01-29T00:28:07.762Z,14.38
2023-01-29T00:30:12.983Z,17.00
2023-01-29T00:32:15.040Z,19.50
2023-01-29T00:34:17.080Z,10.23
2023-01-29T00:36:20.814Z,16.50
2023-01-29T00:38:22.682Z,13.85
2023-01-29T00:44:59.006Z,13.00
2023-01-29T00:47:01.123Z,13.80
2023-01-29T00:49:03.187Z,16.15
2023-01-29T00:51:05.289Z,9.85
2023-01-29T00:53:07.103Z,21.10
2023-01-29T00:57:11.728Z,17.75
2023-01-29T00:59:14.019Z,20.95
2023-01-29T01:01:15.946Z,16.90
2023-01-29T01:03:18.031Z,15.68
2023-01-29T01:05:20.186Z,21.98
2023-01-29T01:07:22.300Z,17.27
2023-01-29T01:09:42.842Z,9.93
2023-01-29T01:11:44.984Z,11.25
2023-01-29T01:13:46.955Z,15.45
2023-01-29T01:18:01.421Z,15.63
2023-01-29T01:20:04.453Z,18.23
2023-01-29T01:22:06.408Z,22.30
2023-01-29T01:24:08.442Z,19.73
2023-01-29T01:26:11.103Z,21.13
2023-01-29T01:28:13.383Z,14.25
2023-01-29T01:30:17.245Z,21.42
2023-01-29T01:32:19.365Z,13.20
2023-01-29T01:36:24.179Z,16.83
2023-01-29T01:38:26.029Z,21.08
2023-01-29T01:42:30.545Z,19.77
2023-01-29T01:44:55.792Z,18.52
2023-01-29T01:47:00.273Z,18.17
2023-01-29T01:49:06.239Z,10.48
2023-01-29T01:51:08.268Z,15.95
2023-01-29T01:55:18.856Z,18.27
2023-01-29T01:57:24.940Z,16.17
2023-01-29T01:59:27.135Z,12.15
2023-01-29T02:01:29.128Z,21.00
2023-01-29T04:13:50.004Z,18.67
2023-01-29T04:15:58.157Z,14.55
2023-01-29T04:18:00.471Z,18.17
2023-01-29T04:20:02.766Z,16.33
2023-01-29T04:22:12.966Z,18.50
2023-01-29T04:24:15.346Z,10.48
2023-01-29T04:26:29.034Z,16.55
2023-01-29T04:29:03.092Z,12.77
2023-01-29T04:31:11.570Z,18.73
2023-01-29T04:33:19.591Z,15.25
2023-01-29T04:35:24.126Z,18.88
2023-01-29T04:37:40.725Z,15.50
2023-01-29T04:39:53.463Z,13.88
2023-01-29T04:42:05.607Z,8.70
2023-01-29T04:46:45.608Z,17.50
2023-01-29T04:48:56.174Z,17.17
2023-01-29T04:51:24.499Z,12.00
2023-01-29T04:53:39.781Z,15.75
2023-01-29T04:55:52.734Z,18.65
2023-01-29T04:58:03.704Z,14.63
2023-01-29T05:00:15.305Z,17.60
2023-01-29T05:02:18.821Z,17.05
2023-01-29T05:04:21.733Z,15.95
2023-01-29T05:06:25.092Z,15.95
2023-01-29T05:08:29.362Z,18.85
2023-01-29T05:10:31.443Z,18.55
2023-01-29T05:12:35.827Z,15.35
2023-01-29T05:14:41.859Z,12.48
2023-01-29T05:16:47.771Z,16.67
2023-01-29T05:18:50.045Z,14.82
2023-01-29T05:20:54.157Z,17.30
2023-01-29T05:22:56.138Z,11.73
2023-01-29T05:24:58.068Z,13.85
2023-01-29T05:29:21.113Z,13.30
2023-01-29T05:31:23.026Z,16.80
2023-01-29T05:35:31.377Z,12.10
2023-01-29T05:37:33.318Z,11.93
2023-01-29T05:41:36.955Z,16.98
2023-01-29T05:45:40.532Z,10.15
2023-01-29T05:47:42.410Z,9.80
2023-01-29T05:51:46.188Z,9.63
2023-01-29T05:53:48.004Z,14.48
2023-01-29T05:55:49.936Z,11.32
2023-01-29T05:59:53.556Z,15.30
2023-01-29T08:15:29.160Z,14.55
2023-01-29T08:17:31.137Z,11.55
2023-01-29T08:21:34.780Z,10.88
2023-01-29T08:25:38.402Z,10.02
2023-01-29T08:27:41.283Z,11.00
2023-01-29T08:29:43.128Z,11.50
2023-01-29T08:33:47.416Z,11.65
2023-01-29T08:35:50.879Z,9.70
2023-01-29T08:38:00.230Z,11.02
2023-01-29T08:40:02.156Z,13.73
2023-01-29T08:44:05.991Z,7.78
2023-01-29T08:52:14.257Z,8.75
2023-01-29T08:56:17.910Z,7.00
2023-01-29T09:00:22.237Z,7.97
2023-01-29T09:02:24.104Z,8.98
2023-01-29T09:06:27.912Z,5.38
2023-01-29T09:08:29.740Z,11.05
2023-01-29T09:10:31.816Z,9.32
2023-01-29T09:12:33.676Z,9.90
2023-01-29T09:16:37.607Z,11.98
2023-01-29T09:18:39.561Z,12.05
2023-01-29T09:22:43.460Z,13.60
2023-01-29T09:24:45.411Z,14.52
2023-01-29T09:28:49.159Z,11.48
2023-01-29T09:30:51.521Z,9.50
2023-01-29T09:32:54.694Z,7.85
2023-01-29T09:34:57.528Z,7.82
2023-01-29T09:36:59.485Z,12.45
2023-01-29T09:41:03.038Z,11.63
2023-01-29T09:43:15.091Z,14.20
2023-01-29T09:47:33.680Z,11.48
2023-01-29T09:49:42.452Z,13.32
2023-01-29T09:51:50.476Z,5.28
2023-01-29T09:54:06.375Z,9.70
2023-01-29T09:56:22.147Z,9.95
2023-01-29T09:58:36.321Z,10.07
2023-01-29T10:00:47.167Z,9.55
2023-01-29T12:14:34.440Z,5.38
2023-01-29T12:16:52.995Z,6.05
2023-01-29T12:19:04.736Z,8.57
2023-01-29T12:21:12.915Z,7.72
2023-01-29T12:23:36.741Z,5.60
2023-01-29T12:26:15.997Z,4.65
2023-01-29T12:28:44.756Z,5.43
2023-01-29T12:30:55.012Z,6.18
2023-01-29T12:33:18.951Z,5.00
2023-01-29T12:35:26.173Z,4.60
2023-01-29T12:37:51.992Z,5.45
2023-01-29T12:39:53.900Z,8.50
2023-01-29T12:45:08.080Z,7.15
2023-01-29T12:47:25.224Z,4.65
2023-01-29T12:49:32.511Z,5.28
2023-01-29T12:51:40.778Z,6.25
2023-01-29T12:53:54.753Z,6.55
2023-01-29T12:56:05.738Z,7.35
2023-01-29T12:58:17.916Z,7.03
2023-01-29T13:02:40.792Z,6.07
2023-01-29T13:05:02.385Z,6.57
2023-01-29T13:07:15.983Z,3.92
2023-01-29T13:09:22.554Z,4.32
2023-01-29T13:11:29.962Z,4.88
2023-01-29T13:13:37.489Z,5.75
2023-01-29T13:15:44.548Z,7.05
2023-01-29T13:18:24.550Z,5.82
2023-01-29T13:20:33.178Z,4.88
2023-01-29T13:22:39.513Z,4.95
2023-01-29T13:24:44.345Z,7.15
2023-01-29T13:26:50.560Z,3.97
2023-01-29T13:28:53.475Z,5.75
2023-01-29T13:31:12.626Z,7.10
2023-01-29T13:33:23.732Z,5.30
2023-01-29T13:35:25.659Z,7.75
2023-01-29T13:39:31.219Z,11.10
2023-01-29T13:41:39.887Z,10.48
2023-01-29T13:43:48.569Z,9.50
2023-01-29T13:45:55.101Z,7.10
2023-01-29T13:48:10.672Z,5.85
2023-01-29T13:50:36.529Z,7.80
2023-01-29T13:52:53.203Z,7.70
2023-01-29T13:55:07.088Z,5.50
2023-01-29T13:57:48.158Z,4.50
2023-01-29T13:59:55.341Z,4.38
2023-01-29T16:14:57.286Z,12.20
2023-01-29T16:17:30.681Z,13.63
2023-01-29T16:19:32.773Z,11.45
2023-01-29T16:21:38.316Z,12.32
2023-01-29T16:23:49.074Z,8.77
2023-01-29T16:25:51.864Z,10.70
2023-01-29T16:27:53.902Z,7.53
2023-01-29T16:32:02.033Z,10.55
2023-01-29T16:34:14.714Z,11.30
2023-01-29T16:36:22.793Z,10.13
2023-01-29T16:38:35.634Z,9.18
2023-01-29T16:40:40.797Z,10.93
2023-01-29T16:42:42.822Z,10.18
2023-01-29T16:46:52.938Z,8.98
2023-01-29T16:48:55.080Z,11.07
2023-01-29T16:51:15.174Z,10.07
2023-01-29T16:53:23.361Z,10.45
2023-01-29T16:55:25.798Z,11.05
2023-01-29T16:57:33.644Z,10.05
2023-01-29T16:59:40.515Z,11.07
2023-01-29T17:01:43.762Z,9.95
2023-01-29T17:04:15.896Z,10.27
2023-01-29T17:06:21.887Z,10.15
2023-01-29T17:08:27.669Z,9.98
2023-01-29T17:10:31.468Z,9.68
2023-01-29T17:12:34.008Z,11.32
2023-01-29T17:14:38.183Z,12.25
2023-01-29T17:17:02.437Z,12.95
2023-01-29T17:19:17.853Z,10.07
2023-01-29T17:21:20.020Z,11.38
2023-01-29T17:23:22.541Z,11.00
2023-01-29T17:25:25.762Z,10.35
2023-01-29T17:27:28.104Z,10.07
2023-01-29T17:29:31.323Z,12.52
2023-01-29T17:31:33.240Z,13.23
2023-01-29T17:35:38.132Z,14.15
2023-01-29T17:39:43.527Z,11.43
2023-01-29T17:41:49.841Z,13.10
2023-01-29T17:43:51.936Z,13.07
2023-01-29T17:45:53.910Z,13.13
2023-01-29T17:47:55.847Z,15.77
2023-01-29T17:49:58.613Z,15.15
2023-01-29T17:52:00.527Z,17.42
2023-01-29T17:56:04.429Z,13.85
2023-01-29T17:58:06.412Z,18.13
2023-01-29T18:00:28.879Z,16.40
2023-01-29T20:14:53.076Z,21.60
2023-01-29T20:16:54.952Z,21.23
2023-01-29T20:19:14.051Z,19.95
2023-01-29T20:21:20.937Z,18.63
2023-01-29T20:23:36.777Z,18.98
2023-01-29T20:25:39.659Z,19.23
2023-01-29T20:27:41.731Z,18.40
2023-01-29T20:29:45.328Z,20.05
2023-01-29T20:31:48.413Z,17.30
2023-01-29T20:33:50.502Z,15.73
2023-01-29T20:36:01.043Z,19.13
2023-01-29T20:38:03.433Z,18.83
2023-01-29T20:40:06.030Z,15.07
2023-01-29T20:42:07.892Z,17.52
2023-01-29T20:44:09.923Z,18.17
2023-01-29T20:46:12.974Z,16.50
2023-01-29T20:48:15.026Z,15.75
2023-01-29T20:52:21.685Z,15.70
2023-01-29T20:54:23.715Z,14.80
2023-01-29T20:58:46.657Z,13.73
2023-01-29T21:00:48.899Z,15.07
2023-01-29T21:02:50.791Z,10.90
2023-01-29T21:04:52.730Z,10.57
2023-01-29T21:08:56.445Z,10.23
2023-01-29T21:10:58.548Z,9.45
2023-01-29T21:13:00.422Z,10.90
2023-01-29T21:15:02.301Z,8.82
2023-01-29T21:19:06.987Z,7.55
2023-01-29T21:21:08.970Z,8.35
2023-01-29T21:25:14.181Z,9.32
2023-01-29T21:27:16.110Z,10.35
2023-01-29T21:29:18.279Z,11.23
2023-01-29T21:31:20.302Z,11.55
2023-01-29T21:33:22.169Z,10.27
2023-01-29T21:35:24.164Z,12.73
2023-01-29T21:39:27.955Z,13.00
2023-01-29T21:43:49.887Z,13.82
2023-01-29T21:46:05.138Z,14.00
2023-01-29T21:48:07.934Z,14.38
2023-01-29T21:50:10.483Z,16.85
2023-01-29T21:52:13.377Z,16.08
2023-01-29T21:54:15.347Z,16.40
2023-01-29T21:58:21.517Z,18.73
2023-01-29T22:00:23.566Z,17.60
